createdAt,value
2018-06-24T00:01:49.786Z,92.30
2018-06-24T00:04:19.072Z,91.80
2018-06-24T00:09:16.968Z,92.40
2018-06-24T00:11:46.272Z,92.70
2018-06-24T00:14:15.611Z,92.40
2018-06-24T00:16:44.852Z,92.00
2018-06-24T00:21:43.265Z,91.30
2018-06-24T00:24:12.497Z,91.90
2018-06-24T00:26:41.725Z,91.80
2018-06-24T00:29:10.960Z,92.10
2018-06-24T00:31:40.260Z,91.60
2018-06-24T00:34:09.482Z,91.60
2018-06-24T00:36:38.798Z,91.20
2018-06-24T00:39:09.316Z,90.40
2018-06-24T00:41:39.053Z,90.10
2018-06-24T00:44:08.299Z,90.10
2018-06-24T00:46:37.496Z,91.20
2018-06-24T00:49:06.729Z,91.50
2018-06-24T00:51:35.994Z,91.50
2018-06-24T00:54:05.253Z,91.30
2018-06-24T00:56:34.495Z,90.50
2018-06-24T00:59:03.748Z,90.40
2018-06-24T01:01:32.992Z,91.50
2018-06-24T01:04:02.218Z,92.20
2018-06-24T01:06:31.420Z,91.80
2018-06-24T01:09:00.747Z,92.30
2018-06-24T01:11:30.054Z,92.40
2018-06-24T01:13:59.288Z,92.30
2018-06-24T01:16:28.577Z,91.30
2018-06-24T01:21:26.635Z,91.70
2018-06-24T01:23:55.875Z,92.10
2018-06-24T01:26:25.516Z,93.00
2018-06-24T01:28:55.126Z,93.30
2018-06-24T01:31:24.728Z,92.50
2018-06-24T01:33:54.743Z,93.90
2018-06-24T01:36:24.249Z,93.90
2018-06-24T01:38:53.754Z,93.80
2018-06-24T01:41:23.704Z,94.50
2018-06-24T01:43:53.276Z,94.80
2018-06-24T01:46:22.711Z,94.90
2018-06-24T01:48:52.419Z,94.30
2018-06-24T01:51:21.928Z,93.90
2018-06-24T01:53:51.633Z,94.30
2018-06-24T01:56:21.149Z,94.40
2018-06-24T01:58:50.652Z,95.00
2018-06-24T02:01:20.537Z,95.10
2018-06-24T02:03:50.164Z,95.50
2018-06-24T02:06:19.752Z,95.80
2018-06-24T02:08:49.251Z,96.10
2018-06-24T02:11:19.096Z,96.70
2018-06-24T02:13:48.808Z,96.80
2018-06-24T02:16:18.492Z,97.00
2018-06-24T02:18:47.988Z,97.30
2018-06-24T02:21:18.856Z,96.90
2018-06-24T02:23:48.364Z,96.50
2018-06-24T02:26:17.937Z,96.80
2018-06-24T02:28:47.550Z,96.40
2018-06-24T02:31:17.421Z,95.20
2018-06-24T02:36:16.061Z,95.60
2018-06-24T02:38:45.783Z,96.00
2018-06-24T02:41:15.598Z,96.20
2018-06-24T02:43:45.117Z,95.10
2018-06-24T02:46:14.747Z,94.70
2018-06-24T02:48:44.652Z,94.00
2018-06-24T02:51:14.631Z,94.30
2018-06-24T02:53:44.278Z,95.20
2018-06-24T02:56:13.785Z,94.10
2018-06-24T02:58:43.462Z,93.30
2018-06-24T03:01:12.991Z,93.20
2018-06-24T03:03:42.642Z,93.40
2018-06-24T03:06:12.166Z,93.50
2018-06-24T03:08:41.689Z,93.30
2018-06-24T03:11:11.490Z,92.90
2018-06-24T03:13:41.030Z,94.10
2018-06-24T03:16:10.633Z,93.90
2018-06-24T03:18:40.452Z,94.20
2018-06-24T03:21:10.541Z,94.60
2018-06-24T03:23:39.730Z,94.30
2018-06-24T03:26:09.233Z,93.90
2018-06-24T03:28:38.748Z,93.20
2018-06-24T03:31:08.281Z,93.30
2018-06-24T03:33:37.785Z,92.80
2018-06-24T03:36:07.700Z,93.70
2018-06-24T03:38:37.384Z,94.00
2018-06-24T03:41:07.120Z,94.30
2018-06-24T03:43:36.691Z,93.50
2018-06-24T03:46:06.232Z,94.60
2018-06-24T03:48:35.735Z,94.90
2018-06-24T03:51:05.517Z,95.30
2018-06-24T03:53:35.053Z,95.00
2018-06-24T03:56:04.739Z,94.80
2018-06-24T03:58:34.245Z,95.20
2018-06-24T04:01:03.880Z,95.00
2018-06-24T04:03:33.388Z,95.40
2018-06-24T04:06:02.992Z,96.40
2018-06-24T04:08:32.949Z,97.00
2018-06-24T04:11:02.788Z,96.90
2018-06-24T04:13:32.220Z,97.10
2018-06-24T04:16:05.923Z,97.20
2018-06-24T04:18:40.520Z,97.40
2018-06-24T04:21:11.579Z,97.10
2018-06-24T04:23:41.933Z,96.40
2018-06-24T04:26:12.016Z,95.50
2018-06-24T04:28:41.923Z,95.30
2018-06-24T04:31:12.162Z,95.10
2018-06-24T04:33:42.064Z,95.70
2018-06-24T04:36:11.762Z,95.50
2018-06-24T04:38:41.400Z,96.30
2018-06-24T04:41:11.290Z,96.40
2018-06-24T04:43:40.829Z,96.50
2018-06-24T04:46:10.505Z,96.40
2018-06-24T04:48:40.145Z,96.40
2018-06-24T04:51:09.828Z,94.20
2018-06-24T04:53:39.460Z,94.10
2018-06-24T04:56:09.172Z,94.30
2018-06-24T04:58:38.863Z,95.50
2018-06-24T05:01:08.772Z,96.10
2018-06-24T05:03:38.474Z,96.50
2018-06-24T05:06:07.912Z,96.50
2018-06-24T05:08:37.587Z,96.40
2018-06-24T05:11:08.266Z,96.60
2018-06-24T05:13:37.860Z,96.90
2018-06-24T05:16:07.639Z,97.00
2018-06-24T05:18:37.564Z,97.10
2018-06-24T05:21:07.366Z,97.20
2018-06-24T05:23:37.212Z,97.50
2018-06-24T05:26:07.094Z,97.40
2018-06-24T05:28:36.804Z,97.70
2018-06-24T05:31:08.725Z,97.50
2018-06-24T05:36:07.505Z,97.10
2018-06-24T05:38:37.180Z,94.90
2018-06-24T05:41:08.016Z,94.40
2018-06-24T05:43:37.584Z,93.30
2018-06-24T05:46:07.334Z,92.90
2018-06-24T05:48:36.942Z,92.50
2018-06-24T05:51:07.681Z,92.50
2018-06-24T05:53:37.386Z,92.30
2018-06-24T05:56:06.997Z,91.70
2018-06-24T05:58:36.527Z,92.30
2018-06-24T06:01:06.140Z,92.20
2018-06-24T06:03:35.714Z,94.90
2018-06-24T06:06:05.424Z,94.40
2018-06-24T06:08:35.137Z,94.10
2018-06-24T06:11:05.147Z,94.50
2018-06-24T06:13:34.758Z,94.30
2018-06-24T06:16:04.631Z,95.90
2018-06-24T06:18:34.282Z,95.20
2018-06-24T06:21:05.047Z,95.00
2018-06-24T06:23:34.655Z,92.90
2018-06-24T06:26:04.341Z,93.80
2018-06-24T06:28:34.053Z,94.30
2018-06-24T06:31:03.420Z,92.80
2018-06-24T06:33:32.755Z,92.00
2018-06-24T06:36:02.012Z,92.50
2018-06-24T06:38:31.718Z,92.50
2018-06-24T06:41:01.132Z,90.50
2018-06-24T06:43:30.395Z,91.30
2018-06-24T06:45:59.664Z,91.50
2018-06-24T06:48:29.340Z,89.00
2018-06-24T06:50:58.733Z,90.20
2018-06-24T06:53:27.977Z,90.80
2018-06-24T06:55:57.244Z,90.00
2018-06-24T06:58:26.672Z,86.80
2018-06-24T07:00:56.009Z,87.30
2018-06-24T07:03:25.309Z,88.60
2018-06-24T07:05:54.606Z,87.80
2018-06-24T07:08:23.849Z,87.40
2018-06-24T07:10:53.186Z,89.40
2018-06-24T07:13:22.405Z,88.30
2018-06-24T07:15:51.643Z,89.00
2018-06-24T07:18:20.900Z,90.30
2018-06-24T07:20:50.475Z,90.30
2018-06-24T07:23:19.779Z,90.60
2018-06-24T07:25:49.005Z,90.50
2018-06-24T07:28:18.423Z,90.40
2018-06-24T07:33:16.896Z,90.40
2018-06-24T07:35:46.131Z,90.50
2018-06-24T07:38:15.424Z,90.60
2018-06-24T07:40:44.809Z,90.80
2018-06-24T07:43:14.092Z,85.70
2018-06-24T07:45:43.328Z,88.80
2018-06-24T07:48:12.609Z,88.90
2018-06-24T07:50:41.979Z,87.50
2018-06-24T07:53:11.390Z,87.60
2018-06-24T07:55:41.539Z,86.20
2018-06-24T07:58:10.785Z,87.20
2018-06-24T08:00:40.216Z,85.90
2018-06-24T08:03:09.562Z,85.50
2018-06-24T08:05:38.918Z,82.60
2018-06-24T08:08:08.186Z,84.20
2018-06-24T08:10:37.597Z,84.10
2018-06-24T08:13:06.925Z,84.30
2018-06-24T08:15:36.224Z,85.40
2018-06-24T08:18:05.644Z,82.40
2018-06-24T08:20:34.948Z,83.80
2018-06-24T08:23:04.263Z,80.70
2018-06-24T08:28:02.287Z,78.50
2018-06-24T08:30:31.760Z,76.50
2018-06-24T08:33:01.101Z,80.90
2018-06-24T08:35:30.386Z,78.60
2018-06-24T08:37:59.713Z,78.60
2018-06-24T08:40:29.115Z,78.30
2018-06-24T08:42:58.352Z,75.20
2018-06-24T08:45:27.644Z,74.00
2018-06-24T08:47:56.920Z,76.90
2018-06-24T08:50:26.221Z,74.60
2018-06-24T08:52:55.500Z,74.20
2018-06-24T08:55:24.760Z,75.20
2018-06-24T08:57:54.064Z,76.50
2018-06-24T09:00:23.357Z,75.50
2018-06-24T09:02:52.649Z,73.80
2018-06-24T09:05:21.954Z,75.90
2018-06-24T09:07:51.239Z,73.20
2018-06-24T09:10:20.522Z,74.30
2018-06-24T09:12:49.849Z,76.10
2018-06-24T09:15:19.165Z,70.70
2018-06-24T09:17:48.508Z,73.00
2018-06-24T09:20:17.825Z,74.00
2018-06-24T09:22:47.222Z,73.40
2018-06-24T09:25:16.460Z,74.40
2018-06-24T09:27:45.732Z,75.00
2018-06-24T09:30:14.968Z,71.10
2018-06-24T09:32:44.348Z,72.70
2018-06-24T09:35:13.628Z,70.10
2018-06-24T09:37:42.947Z,71.90
2018-06-24T09:40:12.247Z,72.90
2018-06-24T09:42:41.941Z,69.80
2018-06-24T09:45:11.215Z,72.20
2018-06-24T09:47:40.444Z,68.60
2018-06-24T09:50:09.709Z,69.90
2018-06-24T09:52:39.108Z,71.70
2018-06-24T09:55:08.496Z,66.50
2018-06-24T09:57:37.816Z,72.90
2018-06-24T10:00:11.645Z,67.50
2018-06-24T10:02:41.492Z,69.60
2018-06-24T10:05:10.765Z,66.20
2018-06-24T10:07:40.068Z,69.00
2018-06-24T10:10:09.591Z,69.00
2018-06-24T10:12:39.130Z,63.90
2018-06-24T10:15:09.085Z,67.50
2018-06-24T10:17:38.492Z,63.40
2018-06-24T10:20:07.877Z,71.30
2018-06-24T10:22:37.223Z,61.60
2018-06-24T10:25:06.493Z,63.70
2018-06-24T10:27:35.801Z,64.00
2018-06-24T10:30:05.936Z,66.80
2018-06-24T10:32:35.221Z,64.10
2018-06-24T10:35:04.552Z,64.60
2018-06-24T10:37:33.872Z,66.50
2018-06-24T10:40:03.148Z,66.20
2018-06-24T10:42:32.460Z,60.60
2018-06-24T10:45:01.803Z,66.00
2018-06-24T10:47:31.092Z,60.70
2018-06-24T10:50:00.392Z,62.80
2018-06-24T10:52:29.744Z,61.20
2018-06-24T10:54:59.071Z,66.20
2018-06-24T10:59:57.132Z,60.30
2018-06-24T11:02:26.433Z,59.40
2018-06-24T11:07:25.198Z,63.20
2018-06-24T11:09:54.587Z,61.30
2018-06-24T11:12:23.964Z,58.00
2018-06-24T11:14:53.296Z,57.60
2018-06-24T11:17:22.604Z,57.30
2018-06-24T11:19:51.871Z,54.70
2018-06-24T11:22:21.281Z,58.10
2018-06-24T11:24:50.570Z,58.20
2018-06-24T11:27:20.099Z,55.70
2018-06-24T11:29:49.403Z,59.40
2018-06-24T11:32:18.777Z,52.30
2018-06-24T11:34:48.031Z,53.30
2018-06-24T11:37:17.768Z,56.80
2018-06-24T11:39:47.097Z,51.80
2018-06-24T11:44:45.164Z,53.00
2018-06-24T11:47:14.452Z,54.80
2018-06-24T11:49:43.741Z,54.70
2018-06-24T11:52:13.073Z,55.60
2018-06-24T11:54:42.373Z,55.50
2018-06-24T11:59:40.331Z,55.70
2018-06-24T12:02:09.672Z,52.40
2018-06-24T12:04:39.004Z,54.50
2018-06-24T12:07:08.322Z,52.60
2018-06-24T12:09:37.689Z,54.20
2018-06-24T12:12:07.085Z,53.60
2018-06-24T12:14:36.792Z,50.00
2018-06-24T12:17:06.197Z,51.40
2018-06-24T12:19:35.669Z,48.20
2018-06-24T12:22:05.227Z,47.90
2018-06-24T12:24:34.727Z,51.10
2018-06-24T12:27:04.371Z,49.10
2018-06-24T12:29:33.864Z,48.90
2018-06-24T12:32:03.400Z,48.90
2018-06-24T12:34:32.851Z,49.60
2018-06-24T12:37:02.286Z,46.90
2018-06-24T12:39:31.934Z,49.00
2018-06-24T12:42:01.541Z,46.30
2018-06-24T12:44:30.832Z,47.60
2018-06-24T12:47:00.227Z,46.10
2018-06-24T12:49:30.010Z,45.50
2018-06-24T12:51:59.654Z,45.80
2018-06-24T12:54:29.205Z,45.80
2018-06-24T12:56:58.676Z,46.00
2018-06-24T13:01:57.179Z,44.30
2018-06-24T13:06:55.295Z,45.50
2018-06-24T13:09:24.562Z,44.40
2018-06-24T13:14:23.117Z,46.60
2018-06-24T13:16:52.439Z,43.50
2018-06-24T13:19:21.748Z,43.50
2018-06-24T13:21:51.329Z,41.80
2018-06-24T13:24:21.043Z,40.50
2018-06-24T13:26:50.384Z,42.90
2018-06-24T13:29:19.686Z,43.50
2018-06-24T13:31:49.972Z,41.10
2018-06-24T13:34:19.284Z,41.00
2018-06-24T13:36:48.626Z,41.50
2018-06-24T13:39:17.900Z,40.50
2018-06-24T13:41:47.297Z,40.10
2018-06-24T13:44:16.591Z,40.80
2018-06-24T13:46:45.939Z,39.50
2018-06-24T13:49:15.268Z,41.00
2018-06-24T13:51:44.663Z,44.20
2018-06-24T13:54:14.079Z,42.90
2018-06-24T13:56:43.379Z,40.10
2018-06-24T13:59:12.724Z,37.80
2018-06-24T14:01:42.095Z,38.10
2018-06-24T14:04:11.352Z,39.20
2018-06-24T14:06:40.760Z,37.80
2018-06-24T14:09:12.240Z,38.70
2018-06-24T14:11:41.978Z,37.10
2018-06-24T14:14:11.488Z,37.70
2018-06-24T14:19:10.153Z,38.30
2018-06-24T14:21:39.515Z,38.80
2018-06-24T14:24:08.936Z,38.50
2018-06-24T14:26:38.265Z,41.40
2018-06-24T14:29:07.567Z,38.60
2018-06-24T14:31:36.906Z,35.30
2018-06-24T14:34:06.418Z,40.00
2018-06-24T14:36:35.697Z,39.80
2018-06-24T14:39:07.188Z,38.40
2018-06-24T14:41:36.560Z,39.00
2018-06-24T14:44:06.207Z,40.20
2018-06-24T14:46:35.510Z,38.00
2018-06-24T14:49:04.835Z,39.70
2018-06-24T14:51:34.429Z,38.40
2018-06-24T14:54:03.684Z,37.40
2018-06-24T14:59:02.880Z,38.40
2018-06-24T15:01:32.582Z,36.90
2018-06-24T15:04:02.318Z,38.60
2018-06-24T15:06:32.088Z,40.70
2018-06-24T15:09:01.716Z,40.30
2018-06-24T15:11:31.395Z,38.00
2018-06-24T15:14:00.999Z,39.40
2018-06-24T15:16:30.539Z,36.70
2018-06-24T15:19:00.385Z,36.20
2018-06-24T15:21:30.173Z,36.80
2018-06-24T15:24:00.339Z,41.10
2018-06-24T15:26:30.179Z,40.00
2018-06-24T15:28:59.887Z,38.40
2018-06-24T15:31:29.853Z,37.80
2018-06-24T15:33:59.430Z,38.90
2018-06-24T15:36:29.324Z,39.20
2018-06-24T15:38:58.835Z,38.90
2018-06-24T15:41:28.472Z,38.10
2018-06-24T15:43:58.037Z,40.10
2018-06-24T15:46:27.855Z,39.90
2018-06-24T15:48:57.508Z,39.00
2018-06-24T15:53:55.981Z,37.60
2018-06-24T15:56:25.292Z,39.40
2018-06-24T15:58:54.600Z,40.00
2018-06-24T16:01:23.988Z,38.80
2018-06-24T16:03:53.312Z,41.70
2018-06-24T16:06:22.543Z,40.50
2018-06-24T16:08:51.841Z,40.40
2018-06-24T16:11:21.185Z,40.60
2018-06-24T16:13:51.197Z,39.30
2018-06-24T16:16:20.897Z,40.70
2018-06-24T16:18:50.228Z,39.80
2018-06-24T16:21:19.882Z,39.90
2018-06-24T16:23:48.991Z,40.60
2018-06-24T16:26:18.637Z,40.80
2018-06-24T16:28:48.388Z,42.20
2018-06-24T16:31:18.869Z,41.70
2018-06-24T16:33:48.192Z,41.90
2018-06-24T16:36:17.525Z,42.40
2018-06-24T16:38:46.890Z,42.80
2018-06-24T16:41:16.476Z,44.00
2018-06-24T16:43:45.803Z,47.00
2018-06-24T16:46:15.169Z,47.30
2018-06-24T16:48:44.432Z,49.70
2018-06-24T16:51:13.800Z,52.90
2018-06-24T16:53:43.134Z,54.50
2018-06-24T16:56:12.469Z,56.00
2018-06-24T16:58:41.809Z,57.80
2018-06-24T17:01:11.854Z,59.20
2018-06-24T17:03:41.506Z,60.30
2018-06-24T17:06:11.540Z,61.40
2018-06-24T17:08:41.325Z,62.00
2018-06-24T17:11:11.132Z,59.40
2018-06-24T17:13:42.177Z,60.80
2018-06-24T17:16:12.112Z,59.90
2018-06-24T17:18:41.801Z,60.80
2018-06-24T17:21:11.620Z,61.50
2018-06-24T17:23:41.314Z,60.60
2018-06-24T17:26:10.861Z,63.90
2018-06-24T17:28:40.457Z,62.80
2018-06-24T17:31:10.677Z,63.80
2018-06-24T17:33:40.321Z,64.60
2018-06-24T17:36:09.981Z,62.90
2018-06-24T17:38:39.782Z,65.60
2018-06-24T17:41:09.756Z,65.40
2018-06-24T17:43:39.408Z,61.80
2018-06-24T17:46:09.044Z,68.90
2018-06-24T17:48:38.629Z,64.70
2018-06-24T17:51:08.535Z,64.10
2018-06-24T17:53:38.217Z,64.10
2018-06-24T17:56:07.981Z,68.90
2018-06-24T17:58:37.882Z,68.50
2018-06-24T18:01:07.833Z,67.30
2018-06-24T18:03:37.532Z,67.50
2018-06-24T18:06:07.591Z,69.80
2018-06-24T18:08:37.250Z,68.10
2018-06-24T18:11:07.099Z,70.40
2018-06-24T18:13:37.061Z,69.60
2018-06-24T18:16:06.871Z,71.80
2018-06-24T18:18:36.741Z,73.40
2018-06-24T18:21:07.621Z,74.40
2018-06-24T18:23:37.434Z,70.10
2018-06-24T18:26:07.355Z,68.10
2018-06-24T18:28:37.173Z,70.40
2018-06-24T18:31:06.887Z,68.70
2018-06-24T18:33:36.415Z,71.70
2018-06-24T18:38:35.789Z,73.70
2018-06-24T18:41:06.656Z,72.90
2018-06-24T18:43:36.365Z,75.00
2018-06-24T18:46:06.361Z,74.80
2018-06-24T18:48:35.955Z,72.60
2018-06-24T18:51:06.835Z,72.90
2018-06-24T18:56:06.020Z,69.40
2018-06-24T18:58:35.548Z,69.20
2018-06-24T19:01:05.135Z,65.70
2018-06-24T19:03:34.990Z,66.70
2018-06-24T19:06:04.708Z,68.30
2018-06-24T19:08:34.613Z,70.80
2018-06-24T19:11:04.756Z,66.60
2018-06-24T19:13:34.308Z,66.50
2018-06-24T19:16:04.101Z,63.10
2018-06-24T19:18:33.936Z,66.20
2018-06-24T19:21:03.649Z,67.80
2018-06-24T19:23:33.440Z,68.30
2018-06-24T19:26:03.156Z,66.90
2018-06-24T19:28:33.087Z,67.70
2018-06-24T19:31:02.798Z,67.50
2018-06-24T19:33:32.604Z,69.90
2018-06-24T19:36:02.529Z,73.70
2018-06-24T19:38:32.055Z,71.00
2018-06-24T19:41:01.946Z,70.90
2018-06-24T19:43:37.887Z,67.10
2018-06-24T19:46:07.745Z,70.80
2018-06-24T19:48:37.245Z,72.50
2018-06-24T19:51:07.027Z,69.50
2018-06-24T19:53:36.849Z,68.00
2018-06-24T19:56:06.645Z,65.80
2018-06-24T19:58:36.197Z,66.20
2018-06-24T20:01:06.177Z,66.10
2018-06-24T20:03:35.886Z,64.70
2018-06-24T20:06:05.485Z,68.60
2018-06-24T20:08:35.204Z,65.30
2018-06-24T20:11:04.938Z,65.30
2018-06-24T20:13:34.555Z,65.30
2018-06-24T20:16:04.492Z,70.90
2018-06-24T20:18:34.248Z,74.00
2018-06-24T20:21:03.865Z,66.70
2018-06-24T20:23:33.446Z,70.50
2018-06-24T20:26:03.329Z,72.10
2018-06-24T20:28:32.557Z,76.10
2018-06-24T20:31:02.189Z,71.80
2018-06-24T20:33:31.967Z,71.30
2018-06-24T20:36:01.509Z,69.50
2018-06-24T20:38:31.289Z,67.00
2018-06-24T20:41:02.125Z,70.40
2018-06-24T20:43:31.937Z,75.70
2018-06-24T20:46:01.447Z,71.10
2018-06-24T20:48:31.133Z,69.30
2018-06-24T20:51:00.789Z,70.00
2018-06-24T20:53:30.505Z,72.20
2018-06-24T20:56:00.077Z,73.20
2018-06-24T20:58:29.788Z,68.00
2018-06-24T21:01:00.421Z,73.10
2018-06-24T21:03:29.965Z,74.50
2018-06-24T21:05:59.460Z,76.20
2018-06-24T21:08:29.036Z,75.50
2018-06-24T21:10:59.776Z,74.20
2018-06-24T21:13:29.382Z,77.00
2018-06-24T21:15:58.812Z,76.40
2018-06-24T21:18:28.155Z,76.90
2018-06-24T21:20:57.973Z,76.50
2018-06-24T21:23:27.736Z,79.00
2018-06-24T21:25:57.418Z,77.90
2018-06-24T21:28:27.129Z,77.10
2018-06-24T21:30:57.758Z,73.70
2018-06-24T21:33:27.263Z,72.60
2018-06-24T21:35:56.796Z,77.00
2018-06-24T21:38:26.481Z,76.70
2018-06-24T21:40:57.116Z,79.50
2018-06-24T21:43:26.784Z,79.90
2018-06-24T21:48:25.442Z,80.10
2018-06-24T21:50:55.130Z,80.70
2018-06-24T21:53:24.950Z,81.90
2018-06-24T21:55:54.482Z,82.80
2018-06-24T21:58:24.165Z,83.60
2018-06-24T22:00:54.487Z,83.60
2018-06-24T22:03:24.095Z,82.00
2018-06-24T22:05:53.604Z,78.40
2018-06-24T22:08:23.105Z,78.20
2018-06-24T22:10:53.937Z,80.20
2018-06-24T22:13:23.367Z,80.60
2018-06-24T22:15:52.952Z,77.90
2018-06-24T22:18:22.394Z,84.40
2018-06-24T22:20:52.158Z,85.60
2018-06-24T22:23:21.698Z,86.20
2018-06-24T22:25:51.386Z,85.20
2018-06-24T22:28:21.292Z,84.50
2018-06-24T22:30:50.798Z,85.10
2018-06-24T22:33:20.313Z,85.60
2018-06-24T22:35:49.918Z,85.60
2018-06-24T22:38:19.450Z,86.70
2018-06-24T22:40:49.024Z,85.30
2018-06-24T22:43:20.972Z,83.30
2018-06-24T22:45:51.004Z,81.50
2018-06-24T22:48:20.508Z,83.30
2018-06-24T22:50:51.449Z,83.70
2018-06-24T22:53:21.056Z,82.60
2018-06-24T22:55:50.693Z,81.80
2018-06-24T22:58:20.470Z,84.70
2018-06-24T23:00:50.220Z,82.70
2018-06-24T23:03:19.721Z,81.70
2018-06-24T23:05:49.299Z,80.00
2018-06-24T23:08:18.910Z,80.30
2018-06-24T23:10:48.512Z,79.20
2018-06-24T23:13:17.948Z,80.00
2018-06-24T23:15:47.723Z,79.00
2018-06-24T23:18:17.265Z,83.80
2018-06-24T23:20:46.779Z,79.90
2018-06-24T23:23:16.372Z,79.50
2018-06-24T23:25:45.857Z,81.10
2018-06-24T23:28:15.666Z,81.20
2018-06-24T23:30:45.783Z,80.50
2018-06-24T23:33:15.216Z,81.90
2018-06-24T23:35:44.898Z,82.80
2018-06-24T23:38:14.509Z,83.20
2018-06-24T23:40:44.037Z,82.20
2018-06-24T23:43:13.820Z,83.10
2018-06-24T23:45:43.322Z,85.00
2018-06-24T23:48:12.831Z,86.60
2018-06-24T23:50:43.564Z,86.20
2018-06-24T23:53:13.174Z,85.80
2018-06-24T23:55:42.709Z,87.80
2018-06-24T23:58:12.319Z,85.20
